createdAt,value
2022-12-03T00:00:54.837Z,57.60
2022-12-03T00:05:56.890Z,57.13
2022-12-03T00:10:58.878Z,55.87
2022-12-03T00:16:01.046Z,56.15
2022-12-03T00:21:03.130Z,56.22
2022-12-03T00:26:05.242Z,55.79
2022-12-03T00:31:07.329Z,56.54
2022-12-03T00:36:09.541Z,56.31
2022-12-03T00:41:12.057Z,56.94
2022-12-03T00:46:18.253Z,57.22
2022-12-03T00:51:23.003Z,57.03
2022-12-03T00:56:25.171Z,57.15
2022-12-03T01:01:27.263Z,56.92
2022-12-03T01:06:29.282Z,57.09
2022-12-03T01:11:41.471Z,56.67
2022-12-03T01:16:44.752Z,56.67
2022-12-03T01:21:49.808Z,56.68
2022-12-03T01:26:51.866Z,56.81
2022-12-03T01:32:12.573Z,56.04
2022-12-03T01:37:14.578Z,55.21
2022-12-03T01:42:29.096Z,57.24
2022-12-03T01:47:36.804Z,56.69
2022-12-03T01:52:39.591Z,57.20
2022-12-03T01:57:47.834Z,57.02
2022-12-03T02:02:53.602Z,56.79
2022-12-03T02:07:56.496Z,57.48
2022-12-03T02:13:03.148Z,56.77
2022-12-03T02:18:05.538Z,56.33
2022-12-03T02:23:43.356Z,56.31
2022-12-03T02:28:45.351Z,57.58
2022-12-03T02:33:47.358Z,57.68
2022-12-03T02:38:50.831Z,56.93
2022-12-03T02:43:52.834Z,56.93
2022-12-03T02:48:54.927Z,57.70
2022-12-03T02:53:57.523Z,56.44
2022-12-03T02:59:03.320Z,56.40
2022-12-03T03:04:06.607Z,56.52
2022-12-03T03:09:08.608Z,57.52
2022-12-03T03:14:10.633Z,57.30
2022-12-03T03:19:12.687Z,57.21
2022-12-03T03:24:14.667Z,57.40
2022-12-03T03:29:17.365Z,56.75
2022-12-03T03:34:20.645Z,57.26
2022-12-03T03:39:22.689Z,57.47
2022-12-03T03:44:24.817Z,56.70
2022-12-03T03:49:27.631Z,56.70
2022-12-03T03:54:29.852Z,57.22
2022-12-03T03:59:32.302Z,57.11
2022-12-03T04:04:37.755Z,56.95
2022-12-03T04:09:39.865Z,57.75
2022-12-03T04:14:41.819Z,57.04
2022-12-03T04:19:43.778Z,56.89
2022-12-03T04:24:45.810Z,57.96
2022-12-03T04:29:47.842Z,58.34
2022-12-03T04:35:19.131Z,57.98
2022-12-03T04:40:39.965Z,58.02
2022-12-03T04:45:41.990Z,58.57
2022-12-03T04:50:44.112Z,58.04
2022-12-03T04:55:46.219Z,58.45
2022-12-03T05:00:48.301Z,58.62
2022-12-03T05:05:50.326Z,58.94
2022-12-03T05:10:52.392Z,58.53
2022-12-03T05:15:54.419Z,57.96
2022-12-03T05:20:56.477Z,59.64
2022-12-03T05:25:58.496Z,58.74
2022-12-03T05:31:00.499Z,59.15
2022-12-03T05:36:02.626Z,59.17
2022-12-03T05:41:25.132Z,59.89
2022-12-03T05:46:27.291Z,59.90
2022-12-03T05:51:30.250Z,59.83
2022-12-03T05:56:32.392Z,59.29
2022-12-03T06:01:34.651Z,58.64
2022-12-03T06:06:36.621Z,59.63
2022-12-03T06:11:40.068Z,60.10
2022-12-03T06:16:42.073Z,58.86
2022-12-03T06:21:44.282Z,59.12
2022-12-03T06:26:46.340Z,59.13
2022-12-03T06:31:49.330Z,58.05
2022-12-03T06:36:51.367Z,60.06
2022-12-03T06:41:53.475Z,58.92
2022-12-03T06:46:55.555Z,59.23
2022-12-03T06:51:57.551Z,58.55
2022-12-03T06:57:00.366Z,58.07
2022-12-03T07:02:02.408Z,58.92
2022-12-03T07:07:04.484Z,58.46
2022-12-03T07:12:07.656Z,58.63
2022-12-03T07:17:09.784Z,59.57
2022-12-03T07:22:12.188Z,59.19
2022-12-03T07:27:14.146Z,59.87
2022-12-03T07:32:16.194Z,59.14
2022-12-03T07:37:22.854Z,58.86
2022-12-03T07:42:25.568Z,59.75
2022-12-03T07:47:27.689Z,57.53
2022-12-03T07:52:30.132Z,57.33
2022-12-03T07:57:32.635Z,56.79
2022-12-03T08:02:34.729Z,55.33
2022-12-03T08:07:37.064Z,53.73
2022-12-03T08:12:45.803Z,53.75
2022-12-03T08:17:54.878Z,52.39
2022-12-03T08:22:57.612Z,50.79
2022-12-03T08:28:26.703Z,51.01
2022-12-03T08:33:39.090Z,49.37
2022-12-03T08:38:45.534Z,47.12
2022-12-03T08:43:47.797Z,46.65
2022-12-03T08:48:49.859Z,46.42
2022-12-03T08:54:03.507Z,48.26
2022-12-03T08:59:24.184Z,49.91
2022-12-03T09:04:36.180Z,50.18
2022-12-03T09:09:38.387Z,52.31
2022-12-03T09:14:40.352Z,53.44
2022-12-03T09:19:46.287Z,53.67
2022-12-03T09:24:48.607Z,55.20
2022-12-03T09:29:50.976Z,54.68
2022-12-03T09:34:55.197Z,55.76
2022-12-03T09:39:57.455Z,54.79
2022-12-03T09:44:59.776Z,55.06
2022-12-03T09:50:02.272Z,55.71
2022-12-03T09:55:13.593Z,55.47
2022-12-03T10:00:21.899Z,55.31
2022-12-03T10:05:24.340Z,55.47
2022-12-03T10:10:26.505Z,56.44
2022-12-03T10:15:33.195Z,56.45
2022-12-03T10:20:35.344Z,56.10
2022-12-03T10:25:51.566Z,56.87
2022-12-03T10:30:57.324Z,56.33
2022-12-03T10:36:21.720Z,56.37
2022-12-03T10:41:29.316Z,56.72
2022-12-03T10:46:31.384Z,57.13
2022-12-03T10:51:33.582Z,57.30
2022-12-03T10:56:36.153Z,57.46
2022-12-03T11:01:38.244Z,57.40
2022-12-03T11:06:40.353Z,58.57
2022-12-03T11:11:42.386Z,58.94
2022-12-03T11:16:47.121Z,58.18
2022-12-03T11:22:07.147Z,58.61
2022-12-03T11:27:09.142Z,59.51
2022-12-03T11:32:11.181Z,58.43
2022-12-03T11:37:21.752Z,58.21
2022-12-03T11:42:26.198Z,58.59
2022-12-03T11:47:29.173Z,59.03
2022-12-03T11:52:40.339Z,58.93
2022-12-03T11:57:43.493Z,59.35
2022-12-03T12:02:46.358Z,59.45
2022-12-03T12:07:49.489Z,60.25
2022-12-03T12:12:55.074Z,60.37
2022-12-03T12:17:57.460Z,60.38
2022-12-03T12:23:28.144Z,59.85
2022-12-03T12:28:30.124Z,60.73
2022-12-03T12:33:34.627Z,60.24
2022-12-03T12:38:36.719Z,60.88
2022-12-03T12:43:39.662Z,59.87
2022-12-03T12:48:41.664Z,61.19
2022-12-03T12:53:43.649Z,60.58
2022-12-03T12:58:46.062Z,60.44
2022-12-03T13:03:51.282Z,60.96
2022-12-03T13:08:54.449Z,60.83
2022-12-03T13:13:56.416Z,61.31
2022-12-03T13:18:59.960Z,62.06
2022-12-03T13:24:02.398Z,61.10
2022-12-03T13:29:14.752Z,60.66
2022-12-03T13:34:21.242Z,61.59
2022-12-03T13:39:28.980Z,61.84
2022-12-03T13:44:32.412Z,62.69
2022-12-03T13:49:34.907Z,61.30
2022-12-03T13:54:39.403Z,62.81
2022-12-03T13:59:41.514Z,62.91
2022-12-03T14:04:44.500Z,62.88
2022-12-03T14:09:46.621Z,63.24
2022-12-03T14:14:48.636Z,62.57
2022-12-03T14:19:50.734Z,63.34
2022-12-03T14:24:53.666Z,63.61
2022-12-03T14:29:56.035Z,63.55
2022-12-03T14:34:58.279Z,62.05
2022-12-03T14:40:00.317Z,62.92
2022-12-03T14:45:02.633Z,62.73
2022-12-03T14:50:06.052Z,63.89
2022-12-03T14:55:08.444Z,62.51
2022-12-03T15:00:12.779Z,62.92
2022-12-03T15:05:14.905Z,63.80
2022-12-03T15:10:16.989Z,63.32
2022-12-03T15:15:19.821Z,62.94
2022-12-03T15:20:21.966Z,62.90
2022-12-03T15:25:27.017Z,63.31
2022-12-03T15:30:29.583Z,63.49
2022-12-03T15:35:31.735Z,63.37
2022-12-03T15:40:35.476Z,63.50
2022-12-03T15:45:37.586Z,63.12
2022-12-03T15:50:40.368Z,63.18
2022-12-03T15:55:42.649Z,63.40
2022-12-03T16:00:44.701Z,63.94
2022-12-03T16:05:46.798Z,63.24
2022-12-03T16:10:49.863Z,63.56
2022-12-03T16:15:51.977Z,64.08
2022-12-03T16:20:54.136Z,64.14
2022-12-03T16:25:56.150Z,64.28
2022-12-03T16:30:58.213Z,64.17
2022-12-03T16:36:00.372Z,64.50
2022-12-03T16:41:02.500Z,63.75
2022-12-03T16:46:17.358Z,63.11
2022-12-03T16:51:19.787Z,63.03
2022-12-03T16:56:22.958Z,63.05
2022-12-03T17:01:25.102Z,62.29
2022-12-03T17:06:27.149Z,62.75
2022-12-03T17:11:29.382Z,62.68
2022-12-03T17:16:31.626Z,62.16
2022-12-03T17:21:35.230Z,60.60
2022-12-03T17:26:37.499Z,61.22
2022-12-03T17:31:42.256Z,60.10
2022-12-03T17:36:44.777Z,60.36
2022-12-03T17:41:46.814Z,60.04
2022-12-03T17:46:49.529Z,59.68
2022-12-03T17:51:51.673Z,59.12
2022-12-03T17:56:53.702Z,59.38
2022-12-03T18:01:55.762Z,59.58
2022-12-03T18:07:02.148Z,59.64
2022-12-03T18:12:04.748Z,59.44
2022-12-03T18:17:06.882Z,59.81
2022-12-03T18:22:09.284Z,60.24
2022-12-03T18:27:11.381Z,60.18
2022-12-03T18:32:27.809Z,59.35
2022-12-03T18:37:33.153Z,59.71
2022-12-03T18:42:35.208Z,60.33
2022-12-03T18:47:38.277Z,60.28
2022-12-03T18:52:40.583Z,59.94
2022-12-03T18:57:42.695Z,60.52
2022-12-03T19:03:02.291Z,60.50
2022-12-03T19:08:14.025Z,60.62
2022-12-03T19:13:16.208Z,60.81
2022-12-03T19:18:18.219Z,60.66
2022-12-03T19:23:20.528Z,61.15
2022-12-03T19:28:22.512Z,60.51
2022-12-03T19:33:28.572Z,60.55
2022-12-03T19:38:31.805Z,61.69
2022-12-03T19:43:36.601Z,60.90
2022-12-03T19:48:40.571Z,61.50
2022-12-03T19:53:43.243Z,60.81
2022-12-03T19:58:46.799Z,61.36
2022-12-03T20:03:51.127Z,61.59
2022-12-03T20:08:58.274Z,61.06
2022-12-03T20:14:07.704Z,60.92
2022-12-03T20:19:12.462Z,61.18
2022-12-03T20:24:16.497Z,61.01
2022-12-03T20:29:18.535Z,60.52
2022-12-03T20:34:20.575Z,60.65
2022-12-03T20:39:22.600Z,60.72
2022-12-03T20:44:24.568Z,61.27
2022-12-03T20:49:26.597Z,61.15
2022-12-03T20:54:28.565Z,61.64
2022-12-03T20:59:30.705Z,60.69
2022-12-03T21:04:33.792Z,60.80
2022-12-03T21:09:35.843Z,61.12
2022-12-03T21:14:37.859Z,60.82
2022-12-03T21:19:39.980Z,60.72
2022-12-03T21:24:42.973Z,61.50
2022-12-03T21:29:45.062Z,61.20
2022-12-03T21:34:47.080Z,61.34
2022-12-03T21:39:49.285Z,60.86
2022-12-03T21:44:51.485Z,60.90
2022-12-03T21:49:53.930Z,61.03
2022-12-03T21:54:56.115Z,61.09
2022-12-03T21:59:58.271Z,61.84
2022-12-03T22:05:00.303Z,61.79
2022-12-03T22:10:02.833Z,61.09
2022-12-03T22:15:05.908Z,61.63
2022-12-03T22:20:08.633Z,60.67
2022-12-03T22:25:10.722Z,60.59
2022-12-03T22:30:12.932Z,60.74
2022-12-03T22:35:15.027Z,60.62
2022-12-03T22:40:17.194Z,61.17
2022-12-03T22:45:19.286Z,60.45
2022-12-03T22:50:21.341Z,61.15
2022-12-03T22:55:23.508Z,60.49
2022-12-03T23:00:31.894Z,60.13
2022-12-03T23:05:37.065Z,61.43
2022-12-03T23:10:42.312Z,61.28
2022-12-03T23:15:46.513Z,60.34
2022-12-03T23:20:53.975Z,60.47
2022-12-03T23:26:02.039Z,60.99
2022-12-03T23:31:05.591Z,61.03
2022-12-03T23:36:08.060Z,61.20
2022-12-03T23:41:13.316Z,60.82
2022-12-03T23:46:19.512Z,60.51
2022-12-03T23:51:26.810Z,61.08
2022-12-03T23:56:30.779Z,60.57
